createdAt,value
2018-08-28T00:01:53.529Z,2.50
2018-08-28T00:04:21.363Z,2.90
2018-08-28T00:06:49.897Z,2.73
2018-08-28T00:09:17.787Z,2.80
2018-08-28T00:11:45.666Z,3.00
2018-08-28T00:14:13.678Z,3.03
2018-08-28T00:16:41.573Z,2.87
2018-08-28T00:19:09.359Z,2.77
2018-08-28T00:21:37.475Z,2.57
2018-08-28T00:24:05.196Z,3.40
2018-08-28T00:26:33.771Z,3.37
2018-08-28T00:29:01.843Z,3.23
2018-08-28T00:31:30.169Z,2.97
2018-08-28T00:33:58.336Z,3.87
2018-08-28T00:36:26.513Z,3.20
2018-08-28T00:38:54.582Z,3.07
2018-08-28T00:41:22.521Z,3.10
2018-08-28T00:43:50.462Z,3.70
2018-08-28T00:46:18.208Z,2.90
2018-08-28T00:48:46.188Z,3.77
2018-08-28T00:51:14.221Z,4.30
2018-08-28T00:53:42.291Z,3.30
2018-08-28T00:56:09.986Z,3.20
2018-08-28T00:58:38.231Z,5.30
2018-08-28T01:01:06.030Z,3.10
2018-08-28T01:03:34.580Z,3.13
2018-08-28T01:06:02.464Z,3.30
2018-08-28T01:08:30.621Z,3.10
2018-08-28T01:10:58.804Z,3.57
2018-08-28T01:13:26.855Z,3.90
2018-08-28T01:15:55.776Z,3.23
2018-08-28T01:18:23.925Z,3.83
2018-08-28T01:20:51.964Z,3.30
2018-08-28T01:23:19.817Z,3.60
2018-08-28T01:25:47.816Z,3.90
2018-08-28T01:28:15.796Z,5.10
2018-08-28T01:30:43.731Z,4.00
2018-08-28T01:33:12.555Z,3.80
2018-08-28T01:35:40.489Z,5.50
2018-08-28T01:38:08.285Z,4.73
2018-08-28T01:40:36.082Z,4.87
2018-08-28T01:43:09.524Z,5.80
2018-08-28T01:45:37.337Z,5.97
2018-08-28T01:48:05.586Z,8.10
2018-08-28T01:50:33.410Z,3.10
2018-08-28T01:53:01.253Z,4.07
2018-08-28T01:55:29.076Z,3.70
2018-08-28T01:57:56.754Z,3.83
2018-08-28T02:00:25.061Z,9.57
2018-08-28T02:02:52.831Z,3.30
2018-08-28T02:05:20.968Z,3.40
2018-08-28T02:07:49.036Z,5.47
2018-08-28T02:10:16.934Z,3.83
2018-08-28T02:12:44.882Z,3.57
2018-08-28T02:15:13.777Z,3.50
2018-08-28T02:17:41.727Z,6.87
2018-08-28T02:20:09.674Z,4.03
2018-08-28T02:22:37.458Z,5.23
2018-08-28T02:25:06.181Z,4.23
2018-08-28T02:27:34.419Z,4.70
2018-08-28T02:30:02.726Z,4.70
2018-08-28T02:32:31.089Z,3.47
2018-08-28T02:34:59.057Z,3.77
2018-08-28T02:37:27.128Z,4.40
2018-08-28T02:39:55.487Z,4.00
2018-08-28T02:42:23.634Z,3.70
2018-08-28T02:44:51.929Z,3.63
2018-08-28T02:47:20.243Z,3.47
2018-08-28T02:49:48.353Z,4.00
2018-08-28T02:52:16.168Z,3.50
2018-08-28T02:54:43.987Z,6.00
2018-08-28T02:57:11.986Z,3.70
2018-08-28T02:59:39.640Z,3.90
2018-08-28T03:02:07.382Z,9.17
2018-08-28T03:04:35.206Z,4.83
2018-08-28T03:07:03.212Z,4.20
2018-08-28T03:09:31.534Z,3.70
2018-08-28T03:11:59.421Z,3.23
2018-08-28T03:14:27.470Z,4.30
2018-08-28T03:16:55.306Z,3.90
2018-08-28T03:19:23.267Z,5.30
2018-08-28T03:21:51.111Z,3.37
2018-08-28T03:24:19.192Z,3.50
2018-08-28T03:26:47.068Z,3.67
2018-08-28T03:29:14.927Z,11.43
2018-08-28T03:31:42.652Z,3.33
2018-08-28T03:34:10.401Z,3.57
2018-08-28T03:36:38.174Z,4.20
2018-08-28T03:39:06.642Z,4.13
2018-08-28T03:41:35.176Z,3.67
2018-08-28T03:44:03.011Z,4.57
2018-08-28T03:46:31.432Z,3.20
2018-08-28T03:48:59.199Z,5.03
2018-08-28T03:51:26.817Z,4.10
2018-08-28T03:53:54.746Z,3.33
2018-08-28T03:56:23.028Z,3.00
2018-08-28T03:58:50.973Z,3.27
2018-08-28T04:01:18.950Z,3.30
2018-08-28T04:03:47.639Z,3.47
2018-08-28T04:06:16.173Z,4.33
2018-08-28T04:08:44.254Z,3.97
2018-08-28T04:11:12.348Z,4.10
2018-08-28T04:13:40.353Z,4.47
2018-08-28T04:16:08.292Z,11.47
2018-08-28T04:18:36.695Z,3.40
2018-08-28T04:21:04.859Z,3.50
2018-08-28T04:23:33.113Z,5.40
2018-08-28T04:26:01.384Z,3.50
2018-08-28T04:28:29.395Z,3.37
2018-08-28T04:30:57.523Z,5.20
2018-08-28T04:33:25.424Z,3.77
2018-08-28T04:35:53.819Z,6.80
2018-08-28T04:38:22.166Z,4.10
2018-08-28T04:40:50.215Z,3.63
2018-08-28T04:43:18.310Z,4.30
2018-08-28T04:45:46.307Z,3.70
2018-08-28T04:48:14.329Z,4.47
2018-08-28T04:50:42.824Z,5.60
2018-08-28T04:53:10.577Z,5.07
2018-08-28T04:55:38.761Z,8.47
2018-08-28T04:58:06.671Z,4.30
2018-08-28T05:00:35.898Z,11.07
2018-08-28T05:03:04.843Z,4.30
2018-08-28T05:05:33.015Z,4.90
2018-08-28T05:08:00.703Z,6.40
2018-08-28T05:10:29.107Z,12.83
2018-08-28T05:12:57.266Z,5.40
2018-08-28T05:15:25.363Z,5.63
2018-08-28T05:17:53.571Z,10.97
2018-08-28T05:20:21.655Z,16.00
2018-08-28T05:22:50.094Z,8.50
2018-08-28T05:25:18.046Z,9.43
2018-08-28T05:27:46.202Z,9.90
2018-08-28T05:30:13.938Z,5.63
2018-08-28T05:32:41.842Z,12.77
2018-08-28T05:35:09.833Z,7.20
2018-08-28T05:37:37.755Z,6.03
2018-08-28T05:40:06.229Z,14.63
2018-08-28T05:42:34.035Z,9.70
2018-08-28T05:45:02.133Z,7.13
2018-08-28T05:47:30.178Z,9.43
2018-08-28T05:49:58.163Z,8.13
2018-08-28T05:52:26.289Z,6.73
2018-08-28T05:54:54.455Z,15.80
2018-08-28T05:57:23.319Z,7.27
2018-08-28T05:59:51.416Z,7.00
2018-08-28T06:02:19.874Z,11.10
2018-08-28T06:04:47.849Z,12.27
2018-08-28T06:07:16.081Z,11.60
2018-08-28T06:10:47.760Z,7.17
2018-08-28T06:13:16.331Z,7.33
2018-08-28T06:15:45.001Z,16.00
2018-08-28T06:18:13.085Z,8.00
2018-08-28T06:20:41.348Z,8.43
2018-08-28T06:23:10.390Z,7.07
2018-08-28T06:25:39.333Z,12.93
2018-08-28T06:28:07.872Z,7.40
2018-08-28T06:30:35.682Z,7.83
2018-08-28T06:33:03.901Z,11.40
2018-08-28T06:35:32.041Z,6.50
2018-08-28T06:37:59.950Z,11.30
2018-08-28T06:40:28.087Z,15.50
2018-08-28T06:42:57.093Z,8.23
2018-08-28T06:45:25.089Z,12.63
2018-08-28T06:47:52.972Z,8.67
2018-08-28T06:50:21.123Z,12.63
2018-08-28T06:52:49.588Z,10.67
2018-08-28T06:55:17.518Z,7.23
2018-08-28T06:57:45.171Z,16.80
2018-08-28T07:00:13.219Z,8.43
2018-08-28T07:02:41.106Z,10.80
2018-08-28T07:05:09.202Z,12.30
2018-08-28T07:07:37.173Z,9.00
2018-08-28T07:10:05.220Z,17.60
2018-08-28T07:12:34.283Z,12.87
2018-08-28T07:15:02.549Z,18.07
2018-08-28T07:17:30.731Z,20.50
2018-08-28T07:19:58.555Z,21.07
2018-08-28T07:22:27.046Z,28.03
2018-08-28T07:24:55.187Z,26.77
2018-08-28T07:27:23.484Z,25.30
2018-08-28T07:29:51.699Z,24.30
2018-08-28T07:32:19.876Z,23.33
2018-08-28T07:34:48.005Z,36.60
2018-08-28T07:37:16.147Z,26.73
2018-08-28T07:39:44.032Z,28.27
2018-08-28T07:42:12.057Z,27.43
2018-08-28T07:44:40.793Z,27.80
2018-08-28T07:47:09.314Z,24.00
2018-08-28T07:49:37.023Z,24.40
2018-08-28T07:52:05.467Z,20.90
2018-08-28T07:54:34.115Z,25.67
2018-08-28T07:57:01.943Z,23.03
2018-08-28T07:59:29.786Z,21.07
2018-08-28T08:01:58.024Z,23.83
2018-08-28T08:04:26.257Z,24.80
2018-08-28T08:06:54.268Z,25.40
2018-08-28T08:09:22.207Z,24.47
2018-08-28T08:11:50.301Z,25.07
2018-08-28T08:14:18.765Z,23.37
2018-08-28T08:16:46.463Z,20.83
2018-08-28T08:19:15.072Z,23.13
2018-08-28T08:21:45.198Z,20.67
2018-08-28T08:24:13.090Z,19.20
2018-08-28T08:26:41.569Z,22.57
2018-08-28T08:29:10.568Z,22.33
2018-08-28T08:31:39.112Z,19.50
2018-08-28T08:34:07.759Z,18.00
2018-08-28T08:36:36.824Z,16.23
2018-08-28T08:39:06.939Z,20.83
2018-08-28T08:41:36.620Z,22.07
2018-08-28T08:44:04.841Z,21.63
2018-08-28T08:46:33.175Z,41.50
2018-08-28T08:49:01.440Z,25.03
2018-08-28T08:51:30.431Z,30.73
2018-08-28T08:53:58.071Z,21.33
2018-08-28T08:56:26.379Z,16.43
2018-08-28T08:58:54.625Z,31.53
2018-08-28T09:01:22.545Z,16.93
2018-08-28T09:03:50.811Z,16.77
2018-08-28T09:06:18.639Z,16.03
2018-08-28T09:08:46.687Z,16.20
2018-08-28T09:11:14.831Z,16.00
2018-08-28T09:13:43.050Z,23.20
2018-08-28T09:16:11.416Z,13.63
2018-08-28T09:18:39.418Z,11.60
2018-08-28T09:21:07.319Z,18.70
2018-08-28T09:23:35.893Z,15.20
2018-08-28T09:26:03.733Z,16.37
2018-08-28T09:28:31.713Z,12.80
2018-08-28T09:31:00.136Z,16.80
2018-08-28T09:33:29.090Z,10.73
2018-08-28T09:35:57.211Z,15.60
2018-08-28T09:38:25.641Z,18.27
2018-08-28T09:40:54.268Z,14.20
2018-08-28T09:43:22.096Z,15.60
2018-08-28T09:45:50.522Z,11.60
2018-08-28T09:48:18.835Z,15.93
2018-08-28T09:50:46.902Z,15.93
2018-08-28T09:53:14.868Z,17.43
2018-08-28T09:55:43.556Z,19.30
2018-08-28T09:58:11.896Z,13.67
2018-08-28T10:00:45.410Z,16.83
2018-08-28T10:03:13.418Z,11.30
2018-08-28T10:05:41.768Z,18.27
2018-08-28T10:08:09.911Z,13.20
2018-08-28T10:10:37.794Z,16.40
2018-08-28T10:13:06.151Z,14.93
2018-08-28T10:15:35.288Z,19.37
2018-08-28T10:18:03.670Z,24.70
2018-08-28T10:20:32.149Z,19.33
2018-08-28T10:23:00.391Z,12.63
2018-08-28T10:25:28.280Z,14.10
2018-08-28T10:27:56.242Z,27.57
2018-08-28T10:30:24.281Z,10.43
2018-08-28T10:32:52.565Z,13.50
2018-08-28T10:35:20.671Z,14.17
2018-08-28T10:37:48.560Z,16.63
2018-08-28T10:40:16.394Z,8.53
2018-08-28T10:42:45.027Z,12.77
2018-08-28T10:45:13.710Z,12.03
2018-08-28T10:47:41.978Z,13.77
2018-08-28T10:50:10.214Z,12.80
2018-08-28T10:52:38.121Z,11.27
2018-08-28T10:55:07.822Z,11.83
2018-08-28T10:57:36.085Z,14.30
2018-08-28T11:00:04.402Z,11.40
2018-08-28T11:02:32.242Z,17.37
2018-08-28T11:05:00.281Z,10.73
2018-08-28T11:07:28.806Z,13.27
2018-08-28T11:09:56.894Z,12.43
2018-08-28T11:12:25.993Z,8.13
2018-08-28T11:14:57.230Z,13.87
2018-08-28T11:17:25.909Z,10.40
2018-08-28T11:19:54.917Z,11.77
2018-08-28T11:22:23.099Z,8.93
2018-08-28T11:24:51.904Z,15.57
2018-08-28T11:27:20.773Z,15.47
2018-08-28T11:29:48.870Z,11.70
2018-08-28T11:32:17.400Z,11.67
2018-08-28T11:34:45.598Z,15.60
2018-08-28T11:37:13.757Z,10.90
2018-08-28T11:39:41.785Z,11.00
2018-08-28T11:42:10.515Z,9.77
2018-08-28T11:44:38.703Z,9.47
2018-08-28T11:47:07.864Z,9.17
2018-08-28T11:49:36.019Z,10.40
2018-08-28T11:52:04.474Z,10.37
2018-08-28T11:54:32.368Z,13.83
2018-08-28T11:57:00.785Z,10.43
2018-08-28T11:59:29.102Z,13.20
2018-08-28T12:01:57.992Z,11.37
2018-08-28T12:04:26.309Z,8.97
2018-08-28T12:06:55.204Z,10.27
2018-08-28T12:09:24.359Z,10.20
2018-08-28T12:11:52.697Z,9.57
2018-08-28T12:14:21.655Z,8.40
2018-08-28T12:16:49.979Z,22.80
2018-08-28T12:19:18.058Z,12.03
2018-08-28T12:21:46.101Z,9.50
2018-08-28T12:24:14.277Z,15.63
2018-08-28T12:26:42.758Z,10.80
2018-08-28T12:29:10.513Z,9.83
2018-08-28T12:31:38.350Z,8.60
2018-08-28T12:34:06.093Z,10.07
2018-08-28T12:36:35.245Z,11.17
2018-08-28T12:39:04.186Z,12.37
2018-08-28T12:41:32.927Z,10.00
2018-08-28T12:44:00.806Z,9.97
2018-08-28T12:46:28.885Z,6.60
2018-08-28T12:48:57.181Z,11.10
2018-08-28T12:51:25.427Z,9.47
2018-08-28T12:53:53.844Z,10.97
2018-08-28T12:56:21.877Z,11.77
2018-08-28T12:58:49.787Z,7.07
2018-08-28T13:01:18.073Z,12.00
2018-08-28T13:03:46.355Z,10.03
2018-08-28T13:06:14.323Z,9.00
2018-08-28T13:08:42.413Z,11.47
2018-08-28T13:11:10.326Z,13.70
2018-08-28T13:13:38.051Z,12.00
2018-08-28T13:16:06.361Z,6.77
2018-08-28T13:18:34.938Z,12.33
2018-08-28T13:21:03.071Z,10.00
2018-08-28T13:23:32.319Z,13.43
2018-08-28T13:26:00.785Z,7.93
2018-08-28T13:28:29.148Z,10.80
2018-08-28T13:30:57.458Z,8.77
2018-08-28T13:33:26.621Z,8.80
2018-08-28T13:35:55.140Z,11.70
2018-08-28T13:38:22.809Z,8.13
2018-08-28T13:40:51.051Z,10.17
2018-08-28T13:43:19.070Z,10.07
2018-08-28T13:45:47.043Z,11.23
2018-08-28T13:48:15.837Z,10.90
2018-08-28T13:50:44.149Z,10.63
2018-08-28T13:53:12.025Z,13.30
2018-08-28T13:55:39.940Z,11.90
2018-08-28T13:58:07.917Z,10.50
2018-08-28T14:00:35.927Z,11.90
2018-08-28T14:03:04.079Z,11.23
2018-08-28T14:05:32.024Z,22.30
2018-08-28T14:08:00.001Z,8.53
2018-08-28T14:10:27.992Z,11.60
2018-08-28T14:12:56.565Z,8.00
2018-08-28T14:15:25.149Z,8.03
2018-08-28T14:17:53.070Z,13.90
2018-08-28T14:20:21.250Z,9.53
2018-08-28T14:22:50.793Z,8.07
2018-08-28T14:25:18.807Z,7.97
2018-08-28T14:27:47.253Z,10.13
2018-08-28T14:30:15.470Z,10.20
2018-08-28T14:32:43.601Z,9.73
2018-08-28T14:35:12.084Z,10.00
2018-08-28T14:37:40.363Z,7.37
2018-08-28T14:40:08.419Z,16.20
2018-08-28T14:42:37.235Z,8.30
2018-08-28T14:45:05.332Z,11.60
2018-08-28T14:47:34.677Z,15.70
2018-08-28T14:50:02.913Z,10.37
2018-08-28T14:52:30.819Z,9.87
2018-08-28T14:54:59.059Z,10.27
2018-08-28T14:57:27.814Z,9.93
2018-08-28T14:59:56.295Z,14.13
2018-08-28T15:02:24.525Z,10.30
2018-08-28T15:04:52.390Z,10.00
2018-08-28T15:07:20.670Z,11.20
2018-08-28T15:09:48.890Z,13.73
2018-08-28T15:12:17.083Z,15.60
2018-08-28T15:14:45.611Z,9.37
2018-08-28T15:17:13.573Z,9.20
2018-08-28T15:19:42.140Z,9.50
2018-08-28T15:22:11.763Z,10.63
2018-08-28T15:24:40.111Z,9.83
2018-08-28T15:27:08.131Z,10.70
2018-08-28T15:29:36.473Z,9.53
2018-08-28T15:32:04.930Z,9.20
2018-08-28T15:34:33.155Z,7.17
2018-08-28T15:37:01.395Z,9.47
2018-08-28T15:39:29.364Z,10.87
2018-08-28T15:41:57.605Z,8.70
2018-08-28T15:44:25.973Z,10.70
2018-08-28T15:46:54.652Z,9.60
2018-08-28T15:49:23.174Z,12.27
2018-08-28T15:51:51.408Z,11.40
2018-08-28T15:54:20.102Z,13.13
2018-08-28T15:56:48.055Z,9.17
2018-08-28T15:59:16.259Z,9.50
2018-08-28T16:01:45.175Z,9.27
2018-08-28T16:04:18.201Z,9.50
2018-08-28T16:06:46.630Z,9.20
2018-08-28T16:09:15.475Z,11.83
2018-08-28T16:11:43.832Z,15.63
2018-08-28T16:14:13.501Z,9.37
2018-08-28T16:16:42.113Z,9.73
2018-08-28T16:19:10.783Z,11.53
2018-08-28T16:21:45.011Z,7.67
2018-08-28T16:24:13.427Z,9.43
2018-08-28T16:26:42.414Z,9.67
2018-08-28T16:29:10.794Z,11.60
2018-08-28T16:31:39.112Z,7.10
2018-08-28T16:34:09.199Z,9.17
2018-08-28T16:36:38.053Z,10.53
2018-08-28T16:39:07.452Z,12.63
2018-08-28T16:41:36.680Z,9.50
2018-08-28T16:44:05.197Z,12.57
2018-08-28T16:46:34.763Z,16.77
2018-08-28T16:49:03.043Z,12.20
2018-08-28T16:51:31.374Z,9.10
2018-08-28T16:53:59.504Z,9.43
2018-08-28T16:56:27.968Z,29.83
2018-08-28T16:58:56.669Z,11.80
2018-08-28T17:01:24.782Z,11.10
2018-08-28T17:03:52.945Z,8.83
2018-08-28T17:06:21.454Z,8.50
2018-08-28T17:08:49.979Z,14.20
2018-08-28T17:11:18.770Z,10.93
2018-08-28T17:13:47.096Z,9.70
2018-08-28T17:16:16.329Z,9.57
2018-08-28T17:18:44.576Z,7.87
2018-08-28T17:21:13.266Z,10.73
2018-08-28T17:23:42.768Z,9.13
2018-08-28T17:26:12.314Z,7.60
2018-08-28T17:28:40.401Z,11.60
2018-08-28T17:31:09.424Z,8.50
2018-08-28T17:33:38.523Z,7.40
2018-08-28T17:36:06.423Z,14.30
2018-08-28T17:38:34.857Z,8.57
2018-08-28T17:41:03.116Z,8.40
2018-08-28T17:43:32.086Z,8.07
2018-08-28T17:46:01.024Z,10.93
2018-08-28T17:48:29.156Z,12.70
2018-08-28T17:50:58.161Z,10.23
2018-08-28T17:53:27.100Z,9.23
2018-08-28T17:55:55.898Z,8.90
2018-08-28T17:58:24.524Z,7.20
2018-08-28T18:00:52.462Z,14.73
2018-08-28T18:03:20.388Z,7.07
2018-08-28T18:05:48.561Z,10.73
2018-08-28T18:08:17.783Z,11.20
2018-08-28T18:10:46.268Z,10.23
2018-08-28T18:13:14.615Z,14.03
2018-08-28T18:15:42.585Z,10.83
2018-08-28T18:18:10.887Z,9.57
2018-08-28T18:20:40.221Z,12.20
2018-08-28T18:23:08.681Z,12.10
2018-08-28T18:25:37.128Z,9.77
2018-08-28T18:28:06.764Z,13.30
2018-08-28T18:30:35.337Z,11.87
2018-08-28T18:33:03.612Z,10.57
2018-08-28T18:35:31.940Z,9.87
2018-08-28T18:37:59.975Z,8.63
2018-08-28T18:40:28.052Z,13.57
2018-08-28T18:42:56.480Z,9.63
2018-08-28T18:45:24.745Z,11.90
2018-08-28T18:47:54.001Z,10.63
2018-08-28T18:50:22.897Z,10.90
2018-08-28T18:52:52.205Z,13.20
2018-08-28T18:55:21.367Z,11.63
2018-08-28T18:57:49.703Z,12.30
2018-08-28T19:00:19.099Z,12.43
2018-08-28T19:02:54.155Z,9.83
2018-08-28T19:05:23.446Z,10.40
2018-08-28T19:07:53.207Z,13.40
2018-08-28T19:10:23.151Z,11.47
2018-08-28T19:12:51.288Z,12.77
2018-08-28T19:15:20.676Z,11.87
2018-08-28T19:17:48.934Z,8.93
2018-08-28T19:20:16.806Z,13.83
2018-08-28T19:22:45.206Z,20.63
2018-08-28T19:25:13.585Z,10.73
2018-08-28T19:27:41.324Z,12.00
2018-08-28T19:30:19.099Z,10.57
2018-08-28T19:32:46.833Z,19.43
2018-08-28T19:35:15.383Z,9.33
2018-08-28T19:37:45.876Z,10.60
2018-08-28T19:40:14.164Z,22.70
2018-08-28T19:42:42.874Z,12.47
2018-08-28T19:45:11.290Z,13.80
2018-08-28T19:47:39.320Z,10.23
2018-08-28T19:50:07.454Z,10.47
2018-08-28T19:52:35.700Z,11.90
2018-08-28T19:55:04.383Z,11.50
2018-08-28T19:57:33.013Z,9.93
2018-08-28T20:00:01.334Z,15.30
2018-08-28T20:02:30.009Z,12.70
2018-08-28T20:04:58.247Z,8.90
2018-08-28T20:07:26.365Z,14.40
2018-08-28T20:09:55.250Z,14.93
2018-08-28T20:12:24.532Z,13.13
2018-08-28T20:14:53.980Z,12.90
2018-08-28T20:17:22.984Z,11.97
2018-08-28T20:19:52.033Z,15.03
2018-08-28T20:22:20.834Z,11.40
2018-08-28T20:24:49.329Z,13.53
2018-08-28T20:27:17.760Z,14.30
2018-08-28T20:29:46.592Z,10.90
2018-08-28T20:32:14.836Z,11.10
2018-08-28T20:34:42.923Z,19.43
2018-08-28T20:37:11.272Z,12.23
2018-08-28T20:39:38.960Z,9.57
2018-08-28T20:42:06.941Z,12.90
2018-08-28T20:44:35.156Z,12.13
2018-08-28T20:47:03.529Z,16.37
2018-08-28T20:49:31.326Z,12.37
2018-08-28T20:51:59.474Z,10.73
2018-08-28T20:54:27.476Z,11.50
2018-08-28T20:56:55.568Z,9.90
2018-08-28T20:59:23.997Z,12.90
2018-08-28T21:01:52.000Z,11.73
2018-08-28T21:04:19.796Z,10.43
2018-08-28T21:06:48.215Z,9.87
2018-08-28T21:09:16.883Z,11.83
2018-08-28T21:11:44.765Z,8.17
2018-08-28T21:14:13.108Z,10.67
2018-08-28T21:16:41.157Z,12.00
2018-08-28T21:19:09.098Z,19.07
2018-08-28T21:21:37.656Z,9.07
2018-08-28T21:24:06.169Z,8.83
2018-08-28T21:26:35.223Z,10.37
2018-08-28T21:29:03.461Z,10.33
2018-08-28T21:31:31.449Z,12.47
2018-08-28T21:33:59.451Z,14.37
2018-08-28T21:36:27.303Z,10.30
2018-08-28T21:38:55.057Z,15.97
2018-08-28T21:41:23.989Z,12.67
2018-08-28T21:43:52.185Z,10.13
2018-08-28T21:46:20.236Z,13.00
2018-08-28T21:48:48.793Z,11.30
2018-08-28T21:51:16.844Z,11.00
2018-08-28T21:53:45.407Z,14.43
2018-08-28T21:56:13.874Z,9.83
2018-08-28T21:58:42.492Z,13.70
2018-08-28T22:01:12.089Z,9.30
2018-08-28T22:03:41.744Z,11.80
2018-08-28T22:06:15.988Z,14.50
2018-08-28T22:08:44.932Z,12.23
2018-08-28T22:11:13.837Z,11.03
2018-08-28T22:13:41.946Z,11.50
2018-08-28T22:16:10.662Z,10.77
2018-08-28T22:18:38.967Z,14.90
2018-08-28T22:21:07.009Z,12.67
2018-08-28T22:23:35.499Z,12.67
2018-08-28T22:26:03.916Z,10.20
2018-08-28T22:28:32.347Z,12.13
2018-08-28T22:31:00.722Z,10.60
2018-08-28T22:33:28.945Z,14.13
2018-08-28T22:35:57.196Z,9.43
2018-08-28T22:38:25.438Z,11.13
2018-08-28T22:40:53.725Z,10.53
2018-08-28T22:43:22.916Z,10.40
2018-08-28T22:45:51.179Z,11.80
2018-08-28T22:48:19.791Z,12.10
2018-08-28T22:50:48.388Z,12.90
2018-08-28T22:53:16.376Z,8.70
2018-08-28T22:55:45.033Z,12.00
2018-08-28T22:58:12.924Z,12.87
2018-08-28T23:00:41.527Z,13.87
2018-08-28T23:03:09.755Z,9.77
2018-08-28T23:05:37.843Z,14.80
2018-08-28T23:08:06.622Z,13.40
2018-08-28T23:10:34.577Z,11.33
2018-08-28T23:13:02.755Z,11.37
2018-08-28T23:15:31.422Z,12.27
2018-08-28T23:17:59.691Z,12.40
2018-08-28T23:20:27.768Z,12.10
2018-08-28T23:22:55.879Z,9.97
2018-08-28T23:25:23.932Z,10.90
2018-08-28T23:27:52.129Z,9.67
2018-08-28T23:30:20.344Z,14.40
2018-08-28T23:32:48.547Z,11.30
2018-08-28T23:35:16.420Z,11.20
2018-08-28T23:37:44.487Z,12.07
2018-08-28T23:40:12.556Z,10.73
2018-08-28T23:42:40.801Z,14.33
2018-08-28T23:45:08.829Z,9.77
2018-08-28T23:47:36.876Z,12.40
2018-08-28T23:50:04.849Z,10.93
2018-08-28T23:52:32.753Z,12.30
2018-08-28T23:55:01.032Z,7.47
2018-08-28T23:57:29.679Z,11.53
2018-08-28T23:59:57.604Z,9.10
